Los Chavez, New Mexico
Current Conditions -  °F | °C
As of 3:35 PM on Monday 22 Dec 2014 (Local Time) from KE80 Reporting Station
Scattered Clouds Scattered Clouds  
Wind Chill: 59°   Ceiling: Unl
Heat Index: 59°   Visibility: 10mi
Dew Point: 29°   Wind: 25mph
Humidity: 32%   Direction: 280°W
Pressure: 29.7"   Gusts: 33mph
Location:  34.5756°N, 106.588°W
Report Text: KE80 222235Z AUTO 28022G29KT 10SM SCT110 15/M01 A2970 RMK AO2 T01501015
Loading
Personal Weather Stations






























Interactive Weather Map New forecast layout! Learn more

10-Day Weather Forecast

Advertisements
Track Severe Weather on mobile